Time;durP1;ratioP1;P1;durP2;ratioP2;P2;SDS_P1;SDS_P2;PMS_P1;PMS_P2;Temp;Humidity;BMP_temperature;BMP_pressure;BME280_temperature;BME280_humidity;BME280_pressure;Samples;Min_cycle;Max_cycle;Signal;HPM_P1;HPM_P2
2023/06/14 00:00:40;;;;;;;12.85;5.88;;;;;;;21.88;38.53;101309.75;5033470;28;20182;-62
2023/06/14 00:03:09;;;;;;;9.10;5.80;;;;;;;21.73;38.69;101313.75;5033049;28;20027;-62
2023/06/14 00:05:40;;;;;;;9.52;5.53;;;;;;;21.73;38.63;101308.38;5032982;28;20494;-62
2023/06/14 00:08:08;;;;;;;10.20;6.05;;;;;;;21.60;38.76;101315.03;5033342;28;20029;-62
2023/06/14 00:10:35;;;;;;;8.70;5.78;;;;;;;21.63;38.59;101310.47;5033237;28;20037;-63
2023/06/14 00:13:07;;;;;;;11.02;5.72;;;;;;;21.54;38.42;101316.09;5033171;28;20060;-62
2023/06/14 00:15:32;;;;;;;;;;;;;;;21.75;37.73;101310.13;5033327;28;20418;-62
2023/06/14 00:18:01;;;;;;;10.38;5.47;;;;;;;21.50;38.71;101306.34;5033177;28;20440;-62
2023/06/14 00:20:27;;;;;;;9.88;5.47;;;;;;;21.48;38.73;101310.88;5033106;28;20076;-62
2023/06/14 00:22:54;;;;;;;11.98;5.22;;;;;;;21.58;38.65;101319.56;5015669;28;20028;-62
2023/06/14 00:25:20;;;;;;;10.80;5.57;;;;;;;21.35;38.22;101321.06;5038165;28;20033;-62
2023/06/14 00:27:45;;;;;;;8.02;5.45;;;;;;;21.44;38.58;101317.25;5039630;28;20060;-62
2023/06/14 00:30:11;;;;;;;9.32;5.35;;;;;;;21.31;38.09;101321.16;5039581;28;20053;-62
2023/06/14 00:32:37;;;;;;;9.38;5.60;;;;;;;21.28;38.28;101322.09;5039725;28;20033;-62
2023/06/14 00:35:02;;;;;;;8.63;5.50;;;;;;;21.30;37.83;101327.47;5039313;28;20528;-63
2023/06/14 00:37:28;;;;;;;10.10;5.18;;;;;;;21.20;38.04;101322.31;5039593;28;20151;-62
2023/06/14 00:39:53;;;;;;;10.30;4.95;;;;;;;21.19;37.77;101316.97;5039391;28;20022;-62
2023/06/14 00:42:26;;;;;;;10.00;5.25;;;;;;;21.15;37.82;101326.91;5039208;28;20390;-63
2023/06/14 00:44:52;;;;;;;11.68;5.28;;;;;;;21.16;37.87;101322.44;5039573;28;20030;-62
2023/06/14 00:47:18;;;;;;;7.80;5.10;;;;;;;21.12;38.37;101326.13;5039314;28;20091;-63
2023/06/14 00:49:45;;;;;;;11.20;5.32;;;;;;;20.95;38.04;101323.84;5021517;28;20025;-63
2023/06/14 00:52:14;;;;;;;14.02;5.28;;;;;;;20.91;38.05;101328.41;5039273;28;20048;-62
2023/06/14 00:54:43;;;;;;;7.03;5.20;;;;;;;20.79;37.59;101319.78;5039304;28;20032;-63
2023/06/14 00:57:10;;;;;;;11.20;5.38;;;;;;;20.73;37.79;101318.13;5039059;28;20029;-63
2023/06/14 00:59:49;;;;;;;7.43;4.85;;;;;;;20.80;37.79;101326.91;5039136;28;20048;-64
2023/06/14 01:02:15;;;;;;;7.10;4.80;;;;;;;20.75;37.59;101317.16;5039502;28;20029;-63
2023/06/14 01:04:45;;;;;;;7.85;5.00;;;;;;;20.73;37.75;101323.50;5039380;28;20051;-63
2023/06/14 01:07:32;;;;;;;7.90;5.05;;;;;;;20.68;37.25;101328.06;5039428;28;20029;-63
2023/06/14 01:10:32;;;;;;;8.35;4.95;;;;;;;20.67;37.39;101329.00;5039443;28;20112;-63
2023/06/14 01:13:06;;;;;;;8.13;5.22;;;;;;;20.64;37.29;101329.97;5039015;28;20037;-63
2023/06/14 01:15:32;;;;;;;12.63;5.13;;;;;;;20.58;37.23;101332.78;5038856;28;20029;-63
2023/06/14 01:18:03;;;;;;;10.82;5.00;;;;;;;20.54;37.38;101324.81;5039074;28;20044;-63
2023/06/14 01:20:36;;;;;;;13.35;4.90;;;;;;;20.47;37.37;101326.72;5039296;28;20044;-63
2023/06/14 01:23:02;;;;;;;6.90;4.80;;;;;;;20.51;37.52;101320.41;5039331;28;20045;-63
2023/06/14 01:25:28;;;;;;;17.13;5.20;;;;;;;20.49;37.41;101328.50;5039281;28;20382;-63
2023/06/14 01:27:58;;;;;;;9.13;4.88;;;;;;;20.51;37.09;101331.13;5039171;28;20108;-63
2023/06/14 01:30:25;;;;;;;7.50;4.70;;;;;;;20.50;37.02;101324.88;5039347;28;20103;-63
2023/06/14 01:32:52;;;;;;;9.20;4.85;;;;;;;20.45;37.71;101325.88;5038913;28;20033;-63
2023/06/14 01:35:17;;;;;;;9.50;5.15;;;;;;;20.39;37.90;101334.97;5037804;28;20463;-63
2023/06/14 01:37:46;;;;;;;7.47;4.53;;;;;;;20.36;37.40;101340.41;5035236;28;20044;-62
2023/06/14 01:40:14;;;;;;;11.65;4.85;;;;;;;20.34;37.76;101333.28;5035773;28;20076;-62
2023/06/14 01:42:41;;;;;;;12.68;5.40;;;;;;;20.29;37.78;101332.50;5035815;28;20029;-63
2023/06/14 01:45:07;;;;;;;11.75;4.68;;;;;;;20.22;38.23;101323.72;5035504;28;20025;-63
2023/06/14 01:47:35;;;;;;;8.45;5.10;;;;;;;20.20;38.45;101329.09;5035680;28;20061;-63
2023/06/14 01:50:02;;;;;;;9.10;5.03;;;;;;;20.19;37.72;101324.66;5035810;28;20084;-63
2023/06/14 01:52:27;;;;;;;8.10;5.00;;;;;;;20.07;38.06;101332.06;5035416;28;20125;-61
2023/06/14 01:54:53;;;;;;;9.13;4.97;;;;;;;19.99;38.50;101329.53;5035454;28;20117;-61
2023/06/14 01:57:20;;;;;;;9.60;4.97;;;;;;;19.89;38.29;101328.84;5035398;28;20033;-62
2023/06/14 01:59:48;;;;;;;9.48;4.82;;;;;;;19.85;38.55;101328.94;5035241;28;20402;-63
2023/06/14 02:02:14;;;;;;;6.70;4.85;;;;;;;19.77;38.69;101326.41;5035530;28;20033;-63
2023/06/14 02:04:39;;;;;;;10.00;4.90;;;;;;;19.84;38.80;101332.56;5035194;28;20042;-62
2023/06/14 02:07:05;;;;;;;9.43;5.07;;;;;;;19.79;39.05;101337.13;5035470;28;20067;-63
2023/06/14 02:09:30;;;;;;;12.68;5.22;;;;;;;19.66;39.52;101329.31;5035180;28;20074;-63
2023/06/14 02:11:56;;;;;;;7.57;4.95;;;;;;;19.58;39.31;101335.72;5035023;28;20037;-62
2023/06/14 02:14:21;;;;;;;11.98;4.90;;;;;;;19.53;39.32;101327.75;5034908;28;20037;-62
2023/06/14 02:16:48;;;;;;;10.02;4.70;;;;;;;19.54;39.54;101326.81;5035063;28;20025;-62
2023/06/14 02:19:18;;;;;;;8.90;5.20;;;;;;;19.46;39.64;101340.38;5034788;28;20407;-62
2023/06/14 02:21:44;;;;;;;8.07;4.90;;;;;;;19.41;40.05;101330.66;5034883;28;20035;-62
2023/06/14 02:24:10;;;;;;;11.00;4.70;;;;;;;19.46;40.27;101331.44;5017071;28;20116;-62
2023/06/14 02:26:36;;;;;;;9.45;5.00;;;;;;;19.46;39.79;101334.13;5034793;28;20517;-62
2023/06/14 02:29:01;;;;;;;8.85;4.88;;;;;;;19.43;40.33;101340.41;5034732;28;20026;-61
2023/06/14 02:31:27;;;;;;;13.07;4.78;;;;;;;19.40;40.05;101336.91;5017190;28;20033;-64
2023/06/14 02:33:53;;;;;;;11.70;4.82;;;;;;;19.46;39.91;101339.50;5017120;28;20121;-62
2023/06/14 02:36:18;;;;;;;8.35;5.20;;;;;;;19.38;40.49;101341.41;5034697;28;20026;-64
2023/06/14 02:38:44;;;;;;;10.98;4.88;;;;;;;19.39;40.16;101345.84;5017024;28;20033;-63
2023/06/14 02:41:09;;;;;;;7.32;4.47;;;;;;;19.32;40.55;101342.41;5034446;28;20022;-62
2023/06/14 02:43:35;;;;;;;8.85;4.97;;;;;;;19.24;40.44;101342.53;5034755;28;20025;-62
2023/06/14 02:46:00;;;;;;;9.43;4.90;;;;;;;19.25;40.42;101343.41;5034428;28;20475;-63
2023/06/14 02:48:26;;;;;;;10.18;5.00;;;;;;;19.21;40.21;101347.06;5034331;28;20040;-62
2023/06/14 02:50:51;;;;;;;13.63;5.05;;;;;;;19.11;40.89;101349.03;5034373;28;20032;-62
2023/06/14 02:53:17;;;;;;;5.88;4.72;;;;;;;19.12;41.48;101355.25;5034184;28;20060;-62
2023/06/14 02:55:42;;;;;;;6.68;4.82;;;;;;;19.08;41.23;101345.50;5034415;28;20438;-63
2023/06/14 02:58:08;;;;;;;9.10;4.80;;;;;;;19.06;41.05;101348.22;5034280;28;20071;-62
2023/06/14 03:00:35;;;;;;;7.65;4.65;;;;;;;19.09;41.23;101345.47;5034500;28;20033;-63
2023/06/14 03:03:01;;;;;;;11.25;4.80;;;;;;;19.14;40.96;101346.31;5034151;28;20064;-63
2023/06/14 03:05:28;;;;;;;10.70;5.00;;;;;;;19.04;40.85;101343.78;5033964;28;20390;-62
2023/06/14 03:07:54;;;;;;;8.77;4.78;;;;;;;19.08;41.15;101345.50;5033978;28;20112;-63
2023/06/14 03:10:21;;;;;;;10.93;4.70;;;;;;;19.02;40.88;101352.72;5033863;28;20487;-63
2023/06/14 03:12:47;;;;;;;11.10;4.80;;;;;;;18.96;41.38;101343.91;5016752;28;20025;-65
2023/06/14 03:15:13;;;;;;;7.28;4.72;;;;;;;19.01;41.26;101356.34;5033744;28;20483;-62
2023/06/14 03:17:38;;;;;;;15.18;5.18;;;;;;;18.99;40.82;101359.94;5033646;28;20029;-63
2023/06/14 03:20:05;;;;;;;9.90;4.90;;;;;;;18.99;41.14;101360.81;5033543;28;20444;-62
2023/06/14 03:22:32;;;;;;;8.98;4.40;;;;;;;18.97;42.09;101357.28;5033363;28;20122;-63
2023/06/14 03:24:59;;;;;;;8.32;4.85;;;;;;;18.86;41.50;101358.34;5033238;28;20092;-63
2023/06/14 03:27:28;;;;;;;14.57;5.18;;;;;;;18.94;41.85;101359.13;5033273;28;20048;-63
2023/06/14 03:29:54;;;;;;;10.98;5.10;;;;;;;19.00;41.09;101367.94;5033028;28;20067;-63
2023/06/14 03:32:19;;;;;;;7.53;4.80;;;;;;;19.04;41.18;101366.09;5033266;28;20116;-63
2023/06/14 03:34:45;;;;;;;7.30;4.85;;;;;;;18.96;41.66;101370.69;5033254;28;20025;-62
2023/06/14 03:37:10;;;;;;;7.15;4.63;;;;;;;19.02;41.37;101365.25;5033409;28;20125;-63
2023/06/14 03:39:36;;;;;;;8.27;4.90;;;;;;;18.92;41.22;101377.00;5032943;28;20065;-62
2023/06/14 03:42:01;;;;;;;13.20;4.93;;;;;;;18.92;41.79;101369.84;5032904;28;20028;-62
2023/06/14 03:44:27;;;;;;;8.50;4.75;;;;;;;18.98;41.02;101368.88;5032693;28;20491;-63
2023/06/14 03:46:52;;;;;;;10.25;4.80;;;;;;;18.99;41.24;101371.53;5033197;28;20026;-63
2023/06/14 03:49:18;;;;;;;8.93;4.78;;;;;;;18.97;41.48;101378.72;5033095;28;20028;-62
2023/06/14 03:51:44;;;;;;;8.38;4.90;;;;;;;18.91;41.85;101377.91;5032948;28;20031;-63
2023/06/14 03:54:10;;;;;;;11.98;4.95;;;;;;;18.94;41.86;101384.09;5032909;28;20037;-63
2023/06/14 03:56:35;;;;;;;6.68;4.57;;;;;;;18.99;42.12;101389.38;5032718;28;20036;-63
2023/06/14 03:59:01;;;;;;;9.38;4.70;;;;;;;18.90;42.12;101382.38;5014520;28;20406;-63
2023/06/14 04:01:29;;;;;;;11.70;4.90;;;;;;;18.90;41.82;101381.50;5032801;28;20021;-65
2023/06/14 04:03:56;;;;;;;10.30;4.97;;;;;;;18.89;42.39;101380.63;5033016;28;20356;-63
2023/06/14 04:06:22;;;;;;;9.60;5.00;;;;;;;18.86;42.16;101382.44;5032658;28;20022;-62
2023/06/14 04:08:49;;;;;;;12.77;4.80;;;;;;;18.90;42.02;101386.84;5032973;28;20360;-63
2023/06/14 04:11:15;;;;;;;10.68;5.00;;;;;;;18.90;42.31;101386.84;5015559;28;20091;-62
2023/06/14 04:13:40;;;;;;;13.02;5.05;;;;;;;18.81;42.81;101393.22;5032362;28;20026;-62
2023/06/14 04:16:06;;;;;;;12.85;4.70;;;;;;;18.86;42.72;101393.16;5032315;28;20026;-63
2023/06/14 04:18:31;;;;;;;11.85;4.95;;;;;;;18.87;42.52;101393.13;5032401;28;20029;-63
2023/06/14 04:20:57;;;;;;;10.25;5.22;;;;;;;18.80;42.56;101393.22;5032529;28;20021;-62
2023/06/14 04:23:23;;;;;;;9.32;4.90;;;;;;;18.81;43.23;101395.03;5032384;28;20021;-63
2023/06/14 04:25:49;;;;;;;9.95;4.63;;;;;;;18.82;43.09;101396.78;5032554;28;20187;-64
2023/06/14 04:28:15;;;;;;;7.28;4.57;;;;;;;18.88;43.44;101407.41;5032452;28;20113;-61
2023/06/14 04:30:41;;;;;;;8.52;4.82;;;;;;;18.71;43.00;101402.28;5032427;28;20491;-62
2023/06/14 04:33:07;;;;;;;10.43;4.75;;;;;;;18.74;43.37;101400.44;5032353;28;20030;-62
2023/06/14 04:35:36;;;;;;;8.15;4.90;;;;;;;18.69;43.91;101407.66;5032469;28;20028;-63
2023/06/14 04:38:05;;;;;;;7.80;4.68;;;;;;;18.73;44.13;101405.84;5032341;28;20394;-62
2023/06/14 04:40:33;;;;;;;10.68;5.07;;;;;;;18.67;43.54;101396.06;5032488;28;20025;-61
2023/06/14 04:42:59;;;;;;;10.55;5.30;;;;;;;18.73;44.06;101403.16;5032405;28;20035;-61
2023/06/14 04:45:31;;;;;;;13.65;5.05;;;;;;;18.89;43.70;101412.75;5032173;28;20025;-63
2023/06/14 04:47:57;;;;;;;;;;;;;;;19.08;42.96;101409.78;5032731;28;20049;-63
2023/06/14 04:50:22;;;;;;;9.13;4.93;;;;;;;19.00;43.58;101409.91;5032409;28;19913;-63
2023/06/14 04:52:51;;;;;;;9.05;4.72;;;;;;;18.96;44.00;101411.75;5032294;28;20515;-62
2023/06/14 04:55:16;;;;;;;13.13;5.00;;;;;;;19.01;43.47;101411.66;5032116;28;20026;-62
2023/06/14 04:57:42;;;;;;;8.52;5.00;;;;;;;19.01;43.53;101412.56;5032346;28;20049;-63
2023/06/14 05:00:10;;;;;;;8.98;5.10;;;;;;;19.13;43.85;101408.81;5031907;28;20037;-62
2023/06/14 05:02:37;;;;;;;9.63;5.10;;;;;;;19.14;43.29;101420.41;5032146;28;20029;-63
2023/06/14 05:05:06;;;;;;;10.85;4.70;;;;;;;19.22;43.69;101421.16;5032019;28;20029;-63
2023/06/14 05:07:33;;;;;;;12.45;5.30;;;;;;;19.34;43.29;101422.78;5032368;28;20060;-63
2023/06/14 05:09:59;;;;;;;9.05;4.65;;;;;;;19.55;43.15;101417.06;5032255;28;20064;-60
2023/06/14 05:12:24;;;;;;;8.52;4.80;;;;;;;19.61;42.54;101425.00;5034789;28;20061;-61
2023/06/14 05:14:50;;;;;;;9.25;4.57;;;;;;;19.80;42.98;101419.34;5035736;28;20034;-61
2023/06/14 05:17:16;;;;;;;9.90;4.50;;;;;;;19.83;42.33;101422.88;5035709;28;20033;-61
2023/06/14 05:19:42;;;;;;;12.15;4.97;;;;;;;19.97;42.21;101431.53;5036078;28;20033;-61
2023/06/14 05:22:07;;;;;;;13.68;5.20;;;;;;;20.12;41.76;101426.78;5035431;28;20036;-62
2023/06/14 05:24:33;;;;;;;8.77;5.03;;;;;;;20.16;41.76;101425.78;5035868;28;20025;-62
2023/06/14 05:26:59;;;;;;;8.27;5.18;;;;;;;20.29;41.63;101431.81;5035624;28;20041;-62
2023/06/14 05:29:24;;;;;;;10.85;5.22;;;;;;;20.34;41.40;101427.22;5035584;28;20048;-62
2023/06/14 05:31:50;;;;;;;10.50;4.95;;;;;;;20.37;41.45;101436.09;5035334;28;20151;-63
2023/06/14 05:34:15;;;;;;;12.30;5.30;;;;;;;20.38;41.90;101436.97;5035719;28;20104;-63
2023/06/14 05:36:40;;;;;;;10.40;4.95;;;;;;;20.49;41.06;101432.31;5035621;28;20360;-63
2023/06/14 05:39:06;;;;;;;7.60;4.70;;;;;;;20.64;41.19;101433.78;5035329;28;20048;-62
2023/06/14 05:41:32;;;;;;;10.95;4.65;;;;;;;20.73;41.37;101431.81;5035589;28;20033;-63
2023/06/14 05:43:57;;;;;;;11.77;4.90;;;;;;;20.85;40.92;101440.50;5034922;28;20029;-62
2023/06/14 05:46:26;;;;;;;9.73;4.68;;;;;;;20.93;40.30;101438.53;5035116;28;20025;-63
2023/06/14 05:48:53;;;;;;;10.45;4.72;;;;;;;21.00;39.67;101445.53;5035012;28;20075;-63
2023/06/14 05:51:19;;;;;;;7.28;4.80;;;;;;;21.00;40.08;101453.59;5035484;28;20036;-63
2023/06/14 05:53:46;;;;;;;11.50;5.05;;;;;;;21.07;39.99;101446.25;5034617;28;20092;-63
2023/06/14 05:56:11;;;;;;;11.93;4.47;;;;;;;21.12;40.00;101450.63;5034978;28;20048;-63
2023/06/14 05:58:37;;;;;;;9.75;4.53;;;;;;;21.13;40.48;101451.50;5034664;28;20025;-63
2023/06/14 06:01:03;;;;;;;10.52;4.63;;;;;;;21.16;40.28;101455.03;5034789;28;20038;-63
2023/06/14 06:03:29;;;;;;;11.48;4.53;;;;;;;21.21;39.98;101452.22;5034950;28;20039;-63
2023/06/14 06:05:55;;;;;;;10.07;4.55;;;;;;;21.25;40.14;101448.53;5035012;28;20120;-63
2023/06/14 06:08:20;;;;;;;13.75;4.47;;;;;;;21.30;39.78;101451.13;5034903;28;20087;-63
2023/06/14 06:10:46;;;;;;;8.40;4.90;;;;;;;21.47;39.53;101454.31;5034676;28;20032;-64
2023/06/14 06:13:11;;;;;;;8.50;4.68;;;;;;;21.67;39.92;101454.69;5034611;28;20032;-63
2023/06/14 06:15:37;;;;;;;11.98;4.45;;;;;;;21.91;39.37;101463.03;5016934;28;20087;-63
2023/06/14 06:18:02;;;;;;;7.63;4.80;;;;;;;22.03;38.84;101457.34;5034327;28;20521;-62
2023/06/14 06:20:31;;;;;;;7.32;4.50;;;;;;;22.13;39.06;101464.25;5034411;28;20022;-63
2023/06/14 06:22:58;;;;;;;15.10;4.57;;;;;;;22.21;37.36;101464.94;5034416;28;20029;-63
2023/06/14 06:25:25;;;;;;;8.45;4.85;;;;;;;22.25;38.29;101472.00;5034850;28;20131;-63
2023/06/14 06:27:55;;;;;;;8.80;4.75;;;;;;;22.32;37.85;101471.84;5034707;28;20037;-62
2023/06/14 06:30:21;;;;;;;10.48;4.30;;;;;;;22.40;37.66;101472.53;5034593;28;20060;-63
2023/06/14 06:32:47;;;;;;;11.23;4.40;;;;;;;22.56;37.23;101472.94;5034250;28;20045;-63
2023/06/14 06:35:13;;;;;;;7.70;4.40;;;;;;;22.63;37.04;101478.13;5034431;28;20083;-63
2023/06/14 06:37:39;;;;;;;7.70;4.40;;;;;;;22.74;36.73;101485.91;5034451;28;20022;-63
2023/06/14 06:40:05;;;;;;;16.08;4.40;;;;;;;22.88;36.61;101486.34;5034198;28;20360;-63
2023/06/14 06:42:31;;;;;;;16.17;4.68;;;;;;;23.06;36.72;101487.63;5034165;28;20092;-62
2023/06/14 06:44:57;;;;;;;13.10;4.13;;;;;;;23.28;36.38;101489.66;5034090;28;20029;-64
2023/06/14 06:47:23;;;;;;;11.48;4.30;;;;;;;23.48;35.30;101489.91;5034142;28;20075;-63
2023/06/14 06:49:48;;;;;;;8.15;4.00;;;;;;;23.66;35.38;101486.63;5034338;28;20030;-63
2023/06/14 06:52:15;;;;;;;11.15;4.53;;;;;;;23.77;35.03;101499.78;5033781;28;20479;-63
2023/06/14 06:54:40;;;;;;;7.20;4.07;;;;;;;23.82;34.69;101505.03;5034228;28;20046;-63
2023/06/14 06:57:06;;;;;;;6.55;4.20;;;;;;;23.95;35.10;101503.66;5034281;28;20030;-63
2023/06/14 06:59:32;;;;;;;11.68;4.07;;;;;;;24.12;35.15;101501.25;5033863;28;20404;-63
2023/06/14 07:01:58;;;;;;;7.38;4.50;;;;;;;24.13;34.87;101500.31;5033688;28;20034;-63
2023/06/14 07:04:23;;;;;;;13.35;4.50;;;;;;;24.44;33.99;101500.13;5033778;28;20021;-64
2023/06/14 07:06:49;;;;;;;9.38;4.00;;;;;;;24.57;34.15;101516.75;5033777;28;20109;-62
2023/06/14 07:09:15;;;;;;;10.40;4.10;;;;;;;24.75;33.56;101517.91;5033652;28;20028;-62
2023/06/14 07:11:42;;;;;;;6.55;3.75;;;;;;;25.01;33.14;101510.63;5016123;28;20155;-62
2023/06/14 07:14:07;;;;;;;10.20;3.97;;;;;;;25.21;33.22;101508.94;5033442;28;20049;-62
2023/06/14 07:16:33;;;;;;;10.75;3.92;;;;;;;25.56;32.91;101514.72;5033750;28;20115;-62
2023/06/14 07:19:00;;;;;;;11.98;4.10;;;;;;;25.53;31.74;101517.59;5033485;28;20065;-62
2023/06/14 07:21:28;;;;;;;8.82;4.20;;;;;;;25.60;32.23;101515.50;5033318;28;20484;-62
2023/06/14 07:23:54;;;;;;;7.05;4.40;;;;;;;25.73;32.38;101516.75;5033457;28;20030;-63
2023/06/14 07:26:19;;;;;;;6.88;3.78;;;;;;;25.98;31.78;101517.50;5033312;28;20037;-63
2023/06/14 07:28:46;;;;;;;8.65;3.88;;;;;;;26.09;31.10;101527.03;5033258;28;20022;-63
2023/06/14 07:31:12;;;;;;;11.00;4.80;;;;;;;26.14;30.94;101523.16;5033495;28;20386;-62
2023/06/14 07:33:38;;;;;;;8.70;3.92;;;;;;;26.26;31.29;101520.88;5032605;28;20036;-62
2023/06/14 07:36:03;;;;;;;8.13;4.13;;;;;;;26.40;30.36;101529.25;5033386;28;20018;-63
2023/06/14 07:38:29;;;;;;;5.35;3.75;;;;;;;26.36;29.63;101533.03;5033595;28;20487;-62
2023/06/14 07:40:54;;;;;;;13.40;4.00;;;;;;;26.42;30.30;101530.06;5033079;28;20527;-63
2023/06/14 07:43:20;;;;;;;7.55;3.70;;;;;;;26.58;30.12;101531.16;5033230;28;20025;-63
2023/06/14 07:45:45;;;;;;;8.38;3.70;;;;;;;26.62;29.46;101532.78;5033025;28;20048;-63
2023/06/14 07:48:11;;;;;;;12.80;3.85;;;;;;;26.58;29.71;101543.84;5033139;28;20099;-63
2023/06/14 07:50:36;;;;;;;7.50;3.70;;;;;;;26.55;29.05;101541.25;5032971;28;20033;-63
2023/06/14 07:53:02;;;;;;;7.30;3.50;;;;;;;26.62;29.57;101545.47;5032125;28;20140;-62
2023/06/14 07:55:28;;;;;;;8.52;3.78;;;;;;;26.71;29.39;101545.94;5032886;28;20053;-63
2023/06/14 07:57:54;;;;;;;13.40;3.60;;;;;;;26.79;28.94;101544.69;5032713;28;20120;-63
2023/06/14 08:00:20;;;;;;;6.82;3.50;;;;;;;26.86;28.96;101547.06;5033042;28;20477;-63
2023/06/14 08:02:46;;;;;;;8.13;3.20;;;;;;;26.74;27.92;101553.06;5032967;28;20040;-63
2023/06/14 08:05:12;;;;;;;8.27;3.45;;;;;;;26.73;28.70;101551.31;5032747;28;20109;-63
2023/06/14 08:07:38;;;;;;;10.93;3.78;;;;;;;26.75;27.97;101545.78;5032866;28;20049;-62
2023/06/14 08:10:06;;;;;;;9.30;3.28;;;;;;;26.97;27.48;101552.84;5024805;28;20018;-62
2023/06/14 08:12:31;;;;;;;9.40;3.35;;;;;;;26.91;27.08;101560.41;5032509;28;20034;-62
2023/06/14 08:14:57;;;;;;;8.75;3.30;;;;;;;27.09;27.29;101558.69;5032442;28;20032;-62
2023/06/14 08:17:22;;;;;;;5.55;3.35;;;;;;;27.17;28.14;101551.09;5032856;28;20080;-63
2023/06/14 08:19:47;;;;;;;7.28;3.40;;;;;;;27.24;26.67;101560.72;5032719;28;20398;-62
2023/06/14 08:22:13;;;;;;;5.03;3.25;;;;;;;26.88;27.30;101550.56;5032464;28;20087;-61
2023/06/14 08:24:39;;;;;;;9.73;3.05;;;;;;;26.99;28.58;101546.50;5032436;28;20473;-63
2023/06/14 08:27:05;;;;;;;8.32;3.03;;;;;;;27.16;28.00;101552.06;5014819;28;20034;-61
2023/06/14 08:29:31;;;;;;;8.25;3.10;;;;;;;27.24;27.62;101555.28;5032279;28;20155;-61
2023/06/14 08:31:56;;;;;;;8.82;3.45;;;;;;;27.33;26.89;101559.41;5014802;28;20030;-62
2023/06/14 08:34:23;;;;;;;6.28;3.00;;;;;;;27.37;26.89;101550.16;5032397;28;20036;-62
2023/06/14 08:36:50;;;;;;;6.72;3.00;;;;;;;27.58;26.92;101551.81;5032413;28;20499;-62
2023/06/14 08:39:16;;;;;;;9.70;3.10;;;;;;;27.81;26.77;101549.81;5032758;28;20026;-62
2023/06/14 08:41:45;;;;;;;10.48;3.55;;;;;;;27.97;26.07;101558.09;5032540;28;20136;-61
2023/06/14 08:44:11;;;;;;;7.28;2.90;;;;;;;28.07;25.66;101543.94;5032249;28;20541;-63
2023/06/14 08:46:37;;;;;;;6.82;2.92;;;;;;;28.01;26.37;101544.28;5035799;28;20112;-62
2023/06/14 08:49:06;;;;;;;7.70;3.00;;;;;;;28.07;26.29;101545.78;5036736;28;20128;-62
2023/06/14 08:51:36;;;;;;;7.82;2.90;;;;;;;28.27;25.68;101542.91;5036489;28;20140;-64
2023/06/14 08:54:03;;;;;;;7.22;2.83;;;;;;;28.32;25.51;101557.16;5036326;28;20041;-62
2023/06/14 08:56:30;;;;;;;4.15;2.70;;;;;;;28.45;24.60;101551.97;5036387;28;20032;-62
2023/06/14 08:59:03;;;;;;;6.75;2.88;;;;;;;28.43;24.74;101556.59;5036421;28;20041;-62
2023/06/14 09:01:34;;;;;;;7.43;2.70;;;;;;;28.44;24.31;101547.50;5036202;28;20036;-62
2023/06/14 09:03:59;;;;;;;4.75;2.58;;;;;;;28.60;24.33;101547.53;5036258;28;20486;-62
2023/06/14 09:06:27;;;;;;;5.00;2.90;;;;;;;28.68;22.47;101548.00;5036490;28;20025;-62
2023/06/14 09:08:56;;;;;;;7.00;2.60;;;;;;;28.80;22.59;101550.06;5036175;28;20026;-62
2023/06/14 09:11:21;;;;;;;3.88;2.60;;;;;;;28.91;22.45;101549.50;5018672;28;20107;-62
2023/06/14 09:13:48;;;;;;;8.30;2.40;;;;;;;28.94;22.88;101552.03;5036229;28;20061;-62
2023/06/14 09:16:14;;;;;;;9.52;2.50;;;;;;;29.24;22.07;101554.94;5036014;28;20159;-62
2023/06/14 09:18:47;;;;;;;8.98;2.60;;;;;;;29.57;21.95;101545.84;5035978;28;20534;-62
2023/06/14 09:21:13;;;;;;;8.30;2.33;;;;;;;29.66;21.15;101548.91;5035875;28;20032;-62
2023/06/14 09:23:41;;;;;;;7.13;2.40;;;;;;;30.12;20.32;101540.75;5035869;28;20052;-62
2023/06/14 09:26:14;;;;;;;3.40;2.13;;;;;;;30.13;20.63;101547.06;5035971;28;20041;-62
2023/06/14 09:28:48;;;;;;;3.97;2.10;;;;;;;30.09;19.22;101549.09;5035558;28;20034;-62
2023/06/14 09:31:15;;;;;;;5.57;2.10;;;;;;;30.17;18.81;101549.53;5018191;28;20033;-62
2023/06/14 09:33:49;;;;;;;8.35;2.90;;;;;;;30.18;19.96;101553.16;5035755;28;20021;-62
2023/06/14 09:36:17;;;;;;;4.70;2.10;;;;;;;30.21;19.45;101552.09;5035660;28;20155;-63
2023/06/14 09:38:51;;;;;;;4.30;2.10;;;;;;;29.93;19.43;101553.69;5035716;28;20026;-62
2023/06/14 09:41:16;;;;;;;4.65;2.08;;;;;;;29.89;19.35;101563.03;5035499;28;20037;-62
2023/06/14 09:43:43;;;;;;;5.03;2.03;;;;;;;29.65;18.90;101566.22;5035306;28;20021;-62
2023/06/14 09:46:09;;;;;;;4.85;2.30;;;;;;;29.56;19.52;101561.31;5017502;28;20033;-63
2023/06/14 09:48:34;;;;;;;3.55;2.13;;;;;;;29.66;20.88;101562.53;5035352;28;20072;-62
2023/06/14 09:51:01;;;;;;;5.40;2.10;;;;;;;29.43;20.46;101561.09;5017722;28;20045;-63
2023/06/14 09:53:29;;;;;;;4.95;2.20;;;;;;;29.92;20.80;101562.84;5035067;28;20049;-62
2023/06/14 09:55:58;;;;;;;3.88;2.13;;;;;;;29.92;19.83;101569.19;5035313;28;20087;-63
2023/06/14 09:58:28;;;;;;;5.60;2.13;;;;;;;30.03;19.58;101570.41;5034235;28;20501;-63
2023/06/14 10:00:54;;;;;;;3.95;2.10;;;;;;;29.92;19.67;101562.84;5035288;28;20029;-62
2023/06/14 10:03:28;;;;;;;7.57;2.30;;;;;;;30.31;19.29;101553.28;5035419;28;20045;-63
2023/06/14 10:06:00;;;;;;;2.83;1.92;;;;;;;30.43;19.14;101553.41;5035113;28;20479;-62
2023/06/14 10:08:27;;;;;;;6.88;2.30;;;;;;;30.62;19.01;101557.72;5035390;28;20034;-63
2023/06/14 10:10:55;;;;;;;3.95;2.40;;;;;;;30.55;18.87;101553.63;5035272;28;20038;-63
2023/06/14 10:13:21;;;;;;;5.28;2.30;;;;;;;30.66;20.06;101549.28;5035092;28;20057;-61
2023/06/14 10:16:06;;;;;;;9.57;2.88;;;;;;;30.85;19.40;101548.16;5034633;28;20529;-63
2023/06/14 10:18:53;;;;;;;5.03;2.30;;;;;;;30.73;19.52;101551.63;5034836;28;20026;-63
2023/06/14 10:21:42;;;;;;;4.32;2.35;;;;;;;30.74;19.18;101543.34;5034985;28;20439;-63
2023/06/14 10:24:12;;;;;;;4.97;2.40;;;;;;;30.81;20.02;101539.28;5017038;28;20021;-63
2023/06/14 10:26:51;;;;;;;3.10;2.30;;;;;;;30.94;18.93;101547.56;5034950;28;20108;-62
2023/06/14 10:29:17;;;;;;;5.63;2.58;;;;;;;30.90;19.21;101551.47;5034886;28;20029;-63
2023/06/14 10:31:48;;;;;;;6.28;2.42;;;;;;;31.12;19.50;101545.50;5034632;28;20057;-63
2023/06/14 10:34:27;;;;;;;5.93;2.30;;;;;;;31.19;18.87;101552.31;5034663;28;20025;-63
2023/06/14 10:37:25;;;;;;;4.13;2.30;;;;;;;31.14;19.17;101538.97;5016905;28;20033;-62
2023/06/14 10:39:51;;;;;;;7.03;2.30;;;;;;;31.09;19.57;101541.13;4990745;28;20048;-62
2023/06/14 10:42:17;;;;;;;5.53;2.60;;;;;;;31.29;18.96;101545.31;5034277;28;20021;-62
2023/06/14 10:44:54;;;;;;;5.47;2.58;;;;;;;31.56;19.11;101558.13;5034461;28;20033;-62
2023/06/14 10:47:23;;;;;;;6.15;2.30;;;;;;;31.44;19.07;101542.56;5034585;28;20045;-62
2023/06/14 10:50:19;;;;;;;3.05;2.35;;;;;;;31.60;18.95;101544.16;5034248;28;20025;-62
2023/06/14 10:52:44;;;;;;;4.30;2.50;;;;;;;31.44;19.27;101537.97;5031962;28;20057;-62
2023/06/14 10:55:19;;;;;;;3.65;2.40;;;;;;;31.47;19.75;101548.69;5034180;28;20128;-62
2023/06/14 10:57:51;;;;;;;3.10;2.50;;;;;;;31.46;19.41;101546.06;5033961;28;20467;-63
2023/06/14 11:00:22;;;;;;;5.35;2.60;;;;;;;31.36;19.73;101546.66;5033921;28;20471;-62
2023/06/14 11:03:44;;;;;;;7.55;2.78;;;;;;;31.45;19.98;101549.78;5034216;28;20056;-62
2023/06/14 11:06:14;;;;;;;6.63;2.40;;;;;;;31.73;19.33;101537.88;4972911;28;20023;-62
2023/06/14 11:09:07;;;;;;;3.85;2.40;;;;;;;31.77;19.30;101553.09;4972814;28;20145;-62
2023/06/14 11:11:34;;;;;;;5.43;2.20;;;;;;;31.95;18.46;101560.09;5014275;28;20041;-63
2023/06/14 11:14:01;;;;;;;10.93;2.60;;;;;;;31.79;19.11;101541.09;5033626;28;20036;-62
2023/06/14 11:16:28;;;;;;;5.30;2.30;;;;;;;31.98;18.93;101548.94;5033418;28;20535;-62
2023/06/14 11:18:53;;;;;;;10.57;2.60;;;;;;;32.12;19.10;101539.78;5033498;28;20029;-62
2023/06/14 11:21:19;;;;;;;5.07;2.40;;;;;;;32.16;19.10;101531.28;5033659;28;20033;-62
2023/06/14 11:23:56;;;;;;;10.70;2.78;;;;;;;32.27;19.25;101536.00;5033388;28;20045;-63